Current Metar reports for airports in our Region

Nearby METAR Reports

Metar reports are mainly used by pilots for information on what is happening at their destination during their pre-flight weather briefings and by meteorologists to assist in short term forecasts. A raw Metar is one of the most universal ways to communicate weather information in the world and are usually transmitted by airports, but some come from permanent sanctioned weather observatories.

Listed below are Metars from airports within 100 miles of our station here in Smethport Pa. The first one of course is the Bradford Regional Airport, then the Olean NY airport and so on. Each airport has it's own table to display it's data and at the bottom of the table is 'Raw' Metar for each airport. Most pilots and weather forecasters can look at the raw data and tell you what is up, but we use a script that handles all of the details for us.

KBFD - Bradford, Pennsylvania, USA
Distance from station: NW 7mi, 11km
Updated: Thu, 26-Apr-2018 7:53pm EDT
Clear
Clear
 Wind from NW
Wind: NW 6 mph , 9 km/h
Temperature: 52°F , 11°C
Dew Point: 30°F , -1°C
Humidity: 44%
Barometer: 29.86 inHg , 1011.2 hPa
Clouds: Clear
Visibility: 10 miles , 16 km
2018/04/26 23:53 KBFD 262353Z AUTO 32005KT 10SM CLR 11/M01 A2986 RMK AO2 SLP118 T01061006 10144 20106 52006
KOLE - Olean, New York, USA
Distance from station: NNE 37mi, 59km
Updated: Thu, 26-Apr-2018 8:35pm EDT
Clear
Clear
 Wind from calm
Wind: Calm
Temperature: 45°F , 7°C
Dew Point: 28°F , -2°C
Humidity: 53%
Barometer: 29.88 inHg , 1011.9 hPa
Clouds: Clear
Visibility: 10 miles , 16 km
2018/04/27 00:35 KOLE 270035Z AUTO 00000KT 10SM CLR 07/M02 A2988 RMK AO2
 
KELZ - Wellsville, New York, USA
Distance from station: NE 40mi, 64km
Updated: Thu, 26-Apr-2018 7:56pm EDT
Clear
Clear
 Wind from WNW
Wind: WNW 6 mph , 9 km/h
Temperature: 52°F , 11°C
Dew Point: 34°F , 1°C
Humidity: 50%
Barometer: 29.87 inHg , 1011.5 hPa
Clouds: Clear
Visibility: 10 miles , 16 km
2018/04/26 23:56 KELZ 262356Z AUTO 30005KT 10SM CLR 11/01 A2987 RMK AO2 SLP125 T01060006 10150 20106 53009
KDUJ - Du Bois, Pennsylvania, USA
Distance from station: SSW 42mi, 68km
Updated: Thu, 26-Apr-2018 7:53pm EDT
Clear
Clear
 Wind from WNW
Wind: WNW 5 mph , 7 km/h
Temperature: 55°F , 13°C
Dew Point: 34°F , 1°C
Humidity: 44%
Barometer: 29.85 inHg , 1010.8 hPa
Clouds: Clear
Visibility: 10 miles , 16 km
2018/04/26 23:53 KDUJ 262353Z AUTO 30004KT 10SM CLR 13/01 A2985 RMK AO2 SLP113 T01280006 10156 20122 53006 TSNO
 
KJHW - Jamestown, New York, USA
Distance from station: NW 46mi, 75km
Updated: Thu, 26-Apr-2018 7:56pm EDT
Clear
Clear
 Wind from NW
Wind: NW 3 mph , 6 km/h
Temperature: 46°F , 8°C
Dew Point: 30°F , -1°C
Humidity: 53%
Barometer: 29.89 inHg , 1012.2 hPa
Clouds: Clear
Visibility: 10 miles , 16 km
2018/04/26 23:56 KJHW 262356Z AUTO 31003KT 10SM CLR 08/M01 A2989 RMK AO2 SLP136 6//// T00831006 10111 20083 53005
KFIG - Clearfield, Pennsylvania, USA
Distance from station: S 47mi, 75km
Updated: Thu, 26-Apr-2018 7:54pm EDT
Clear
Clear
 Wind from SW
Wind: SW 5 mph , 7 km/h
Temperature: 57°F , 14°C
Dew Point: 34°F , 1°C
Humidity: 41%
Barometer: 29.85 inHg , 1010.8 hPa
Clouds: Clear
Visibility: 10 miles , 16 km
2018/04/26 23:54 KFIG 262354Z AUTO 23004KT 10SM CLR 14/01 A2985 RMK AO2 SLP113 T01390006 10167 20139 53006
 
KDKK - Dunkirk, New York, USA
Distance from station: NW 66mi, 106km
Updated: Thu, 26-Apr-2018 7:53pm EDT
Clear
Clear
 Wind from SW
Wind: SW 5 mph , 7 km/h
Temperature: 46°F , 8°C
Wind Chill: 44°F , 7°C
Dew Point: 34°F , 1°C
Humidity: 62%
Barometer: 29.89 inHg , 1012.2 hPa
Clouds: Clear
Visibility: 10 miles , 16 km
2018/04/26 23:53 KDKK 262353Z AUTO 23004KT 10SM CLR 08/01 A2989 RMK AO2 SLP126 T00830006 10106 20083 58004
KUNV - State College, Pennsylvania, USA
Distance from station: SSE 71mi, 114km
Updated: Thu, 26-Apr-2018 7:53pm EDT
Clear
Clear
 Wind from W
Wind: W 7 mph , 11 km/h
Temperature: 59°F , 15°C
Dew Point: 34°F , 1°C
Humidity: 39%
Barometer: 29.85 inHg , 1010.8 hPa
Clouds: Clear
Visibility: 10 miles , 16 km
2018/04/26 23:53 KUNV 262353Z 26006KT 10SM SKC 15/01 A2985
 
KFKL - Franklin, Pennsylvania, USA
Distance from station: WSW 72mi, 116km
Updated: Thu, 26-Apr-2018 7:56pm EDT
Clear
Clear
 Wind from calm
Wind: Calm
Temperature: 54°F , 12°C
Dew Point: 34°F , 1°C
Humidity: 47%
Barometer: 29.88 inHg , 1011.9 hPa
Clouds: Clear
Visibility: 10 miles , 16 km
2018/04/26 23:56 KFKL 262356Z AUTO 00000KT 10SM CLR 12/01 A2988 RMK AO2 SLP125 T01220011 10150 20111 53004
KDSV - Dansville, New York, USA
Distance from station: NE 73mi, 117km
Updated: Thu, 26-Apr-2018 7:54pm EDT
Clear
Clear
 Wind from NW
Wind: NW 8 mph , 13 km/h
Temperature: 52°F , 11°C
Dew Point: 34°F , 1°C
Humidity: 50%
Barometer: 29.87 inHg , 1011.5 hPa
Clouds: Clear
Visibility: 10 miles , 16 km
2018/04/26 23:54 KDSV 262354Z AUTO 32007KT 10SM CLR 11/01 A2987 RMK AO2 SLP126 T01110006 10161 20111 51013
 
KIDI - Indiana/Stewart, Pennsylvania, USA
Distance from station: SSW 81mi, 130km
Updated: Thu, 26-Apr-2018 8:35pm EDT
Clear
Clear
 Wind from calm
Wind: Calm
Temperature: 55°F , 13°C
Dew Point: 37°F , 3°C
Humidity: 51%
Barometer: 29.92 inHg , 1013.2 hPa
Clouds: Clear
Visibility: 10 miles , 16 km
2018/04/27 00:35 KIDI 270035Z AUTO 00000KT 10SM CLR 13/03 A2992 RMK A01
KBUF - Buffalo/Cheektow, New York, USA
Distance from station: N 84mi, 136km
Updated: Thu, 26-Apr-2018 7:54pm EDT
Few Clouds
Few Clouds
 Wind from SW
Wind: SW 10 mph , 17 km/h
Temperature: 43°F , 6°C
Wind Chill: 37°F , 3°C
Dew Point: 34°F , 1°C
Humidity: 71%
Barometer: 29.87 inHg , 1011.5 hPa
Clouds: Few Clouds
Visibility: 10 miles , 16 km
Cloud details: Few Clouds 25000 ft
Few Clouds 30000 ft
2018/04/26 23:54 KBUF 262354Z 22009KT 10SM FEW250 FEW300 06/01 A2987 RMK AO2 SLP120 T00610011 10089 20061 58001
 
KGKJ - Meadville, Pennsylvania, USA
Distance from station: W 86mi, 138km
Updated: Thu, 26-Apr-2018 7:53pm EDT
Clear
Clear
 Wind from N
Wind: N 7 mph , 11 km/h
Temperature: 48°F , 9°C
Wind Chill: 45°F , 7°C
Dew Point: 36°F , 2°C
Humidity: 62%
Barometer: 29.88 inHg , 1011.9 hPa
Clouds: Clear
Visibility: 10 miles , 16 km
2018/04/26 23:53 KGKJ 262353Z AUTO 35006KT 10SM CLR 09/02 A2988 RMK AO2 SLP125 T00940022 10139 20094 53004
KERI - Erie, Pennsylvania, USA
Distance from station: WNW 87mi, 140km
Updated: Thu, 26-Apr-2018 7:51pm EDT
Clear
Clear
 Wind from calm
Wind: Calm
Temperature: 50°F , 10°C
Dew Point: 34°F , 1°C
Humidity: 54%
Barometer: 29.90 inHg , 1012.5 hPa
Clouds: Clear
Visibility: 10 miles , 16 km
2018/04/26 23:51 KERI 262351Z 00000KT 10SM CLR 10/01 A2990 RMK AO2 SLP130 T01000006 10106 20089 55002
 
KELM - Elmira, New York, USA
Distance from station: ENE 90mi, 145km
Updated: Thu, 26-Apr-2018 7:53pm EDT
Clear
Clear
 Wind from NNW
Wind: NNW 5 mph , 7 km/h
Temperature: 57°F , 14°C
Dew Point: 36°F , 2°C
Humidity: 44%
Barometer: 29.84 inHg , 1010.5 hPa
Clouds: Clear
Visibility: 10 miles , 16 km
2018/04/26 23:53 KELM 262353Z 33004KT 10SM CLR 14/02 A2984 RMK AO2 SLP108 T01390022 10172 20139 53012
KIPT - Williamsport, Pennsylvania, USA
Distance from station: ESE 91mi, 146km
Updated: Thu, 26-Apr-2018 7:54pm EDT
Clear
Clear
 Wind from SSW
Wind: SSW 3 mph , 6 km/h
Temperature: 63°F , 17°C
Dew Point: 36°F , 2°C
Humidity: 37%
Barometer: 29.82 inHg , 1009.8 hPa
Clouds: Clear
Visibility: 10 miles , 16 km
2018/04/26 23:54 KIPT 262354Z 20003KT 10SM CLR 17/02 A2982 RMK AO2 SLP096 T01720022 10189 20161 53009
 
KBTP - Butler Co., Pennsylvania, USA
Distance from station: SW 98mi, 157km
Updated: Thu, 26-Apr-2018 7:56pm EDT
Clear
Clear
 Wind from calm
Wind: Calm
Temperature: 57°F , 14°C
Dew Point: 34°F , 1°C
Humidity: 41%
Barometer: 29.88 inHg , 1011.9 hPa
Clouds: Clear
Visibility: 10 miles , 16 km
2018/04/26 23:56 KBTP 262356Z AUTO 00000KT 10SM CLR 14/01 A2988 RMK AO2 SLP128 T01390011 10156 20122 53006
KAOO - Altoona, Pennsylvania, USA
Distance from station: S 99mi, 159km
Updated: Thu, 26-Apr-2018 7:53pm EDT
Clear
Clear
 Wind from NW
Wind: NW 3 mph , 6 km/h
Temperature: 57°F , 14°C
Dew Point: 36°F , 2°C
Humidity: 44%
Barometer: 29.87 inHg , 1011.5 hPa
Clouds: Clear
Visibility: 10 miles , 16 km
2018/04/26 23:53 KAOO 262353Z AUTO 32003KT 10SM CLR 14/02 A2987 RMK AO2 SLP117 T01440017 10172 20144 53008
 
KPIT - Pittsburg, Pennsylvania, USA
Distance from station: SSW 126mi, 203km
Updated: Thu, 26-Apr-2018 7:51pm EDT
Overcast
Overcast
 Wind from S
Wind: S 3 mph , 6 km/h
Temperature: 61°F , 16°C
Dew Point: 32°F , 0°C
Humidity: 34%
Barometer: 29.86 inHg , 1011.2 hPa
Clouds: Overcast
Visibility: 10 miles , 16 km
Cloud details: Few Clouds 15000 ft
Overcast 25000 ft
2018/04/26 23:51 KPIT 262351Z 18003KT 10SM FEW150 OVC250 16/00 A2986 RMK AO2 SLP123 T01560000 10167 20133 53005
KCLE - Cleveland, Ohio, USA
Distance from station: WSW 160mi, 258km
Updated: Thu, 26-Apr-2018 7:51pm EDT
Partly Cloudy
Partly Cloudy
 Wind from NE
Wind: NE 5 mph , 7 km/h
Temperature: 52°F , 11°C
Dew Point: 34°F , 1°C
Humidity: 50%
Barometer: 29.91 inHg , 1012.9 hPa
Clouds: Partly Cloudy
Visibility: 10 miles , 16 km
Cloud details: Partly Cloudy 25000 ft
2018/04/26 23:51 KCLE 262351Z 04004KT 10SM SCT250 11/01 A2991 RMK AO2 SLP132 T01110011 10133 20111 57000 $